Time;durP1;ratioP1;P1;durP2;ratioP2;P2;SDS_P1;SDS_P2;PMS_P1;PMS_P2;Temp;Humidity;BMP_temperature;BMP_pressure;BME280_temperature;BME280_humidity;BME280_pressure;Samples;Min_cycle;Max_cycle;Signal;HPM_P1;HPM_P2
2023/08/15 00:01:01;;;;;;;8.90;4.57;;;;;;;21.06;74.49;101340.03;7396431;19;20505;-57
2023/08/15 00:03:29;;;;;;;10.05;4.75;;;;;;;21.02;74.50;101344.06;7398817;19;20236;-57
2023/08/15 00:05:56;;;;;;;10.82;4.97;;;;;;;21.00;75.08;101332.63;7397268;19;20035;-57
2023/08/15 00:08:27;;;;;;;9.13;4.50;;;;;;;21.04;74.73;101327.75;7394327;19;20014;-57
2023/08/15 00:10:54;;;;;;;9.50;4.53;;;;;;;21.02;74.62;101330.59;7396982;19;20018;-57
2023/08/15 00:13:21;;;;;;;10.85;4.32;;;;;;;21.08;74.58;101332.63;7397555;19;20022;-57
2023/08/15 00:15:49;;;;;;;8.20;3.72;;;;;;;21.01;74.88;101337.00;7396775;19;20042;-56
2023/08/15 00:18:16;;;;;;;9.75;4.15;;;;;;;20.98;75.30;101331.09;7397431;19;20055;-57
2023/08/15 00:20:47;;;;;;;8.77;3.92;;;;;;;21.00;75.04;101335.31;7396755;19;20021;-57
2023/08/15 00:23:14;;;;;;;10.38;4.30;;;;;;;21.08;74.57;101338.00;7397465;19;20086;-57
2023/08/15 00:25:42;;;;;;;11.75;4.15;;;;;;;21.02;75.45;101332.44;7396595;19;20029;-57
2023/08/15 00:28:09;;;;;;;8.98;4.10;;;;;;;21.01;75.44;101333.47;7394160;19;20043;-56
2023/08/15 00:30:37;;;;;;;9.80;3.90;;;;;;;21.02;75.80;101335.13;7396066;19;20023;-57
2023/08/15 00:33:04;;;;;;;9.52;4.38;;;;;;;20.97;75.82;101326.72;7397777;19;20014;-57
2023/08/15 00:35:32;;;;;;;9.88;4.25;;;;;;;20.94;75.88;101320.66;7395906;19;20019;-57
2023/08/15 00:37:59;;;;;;;14.30;4.35;;;;;;;21.03;75.75;101323.38;7395829;19;20015;-57
2023/08/15 00:40:27;;;;;;;8.60;3.60;;;;;;;21.00;75.79;101316.47;7395758;19;20512;-57
2023/08/15 00:42:54;;;;;;;8.50;3.80;;;;;;;21.01;76.20;101309.22;7396642;19;20031;-58
2023/08/15 00:45:21;;;;;;;8.73;3.88;;;;;;;20.99;76.50;101308.56;7397620;19;20019;-57
2023/08/15 00:47:49;;;;;;;8.20;3.85;;;;;;;20.92;76.85;101298.44;7395082;19;20528;-57
2023/08/15 00:50:17;;;;;;;8.52;3.88;;;;;;;21.01;76.43;101309.22;7395293;19;20051;-57
2023/08/15 00:52:45;;;;;;;8.20;4.00;;;;;;;20.99;76.46;101306.72;7397933;19;20027;-58
2023/08/15 00:55:12;;;;;;;8.98;3.88;;;;;;;20.99;76.68;101312.09;7393617;19;20022;-58
2023/08/15 00:57:40;;;;;;;9.43;3.60;;;;;;;21.02;76.87;101311.72;7394217;19;20043;-58
2023/08/15 01:00:08;;;;;;;10.80;4.40;;;;;;;20.96;77.15;101309.72;7396152;19;20082;-57
2023/08/15 01:02:35;;;;;;;9.00;3.95;;;;;;;20.91;77.30;101312.94;7394173;19;20021;-58
2023/08/15 01:05:04;;;;;;;8.43;3.75;;;;;;;20.97;77.16;101324.03;7396583;19;20060;-58
2023/08/15 01:07:32;;;;;;;7.78;4.20;;;;;;;21.14;76.68;101329.28;7394636;19;20026;-58
2023/08/15 01:09:59;;;;;;;10.43;3.88;;;;;;;21.32;75.62;101325.53;7395081;19;20504;-58
2023/08/15 01:12:33;;;;;;;8.65;3.72;;;;;;;21.47;75.08;101331.13;7393823;19;20010;-58
2023/08/15 01:15:08;;;;;;;8.60;3.70;;;;;;;21.26;76.42;101334.31;7394534;19;20051;-58
2023/08/15 01:17:54;;;;;;;7.53;3.60;;;;;;;21.29;75.94;101337.53;7394376;19;20027;-57
2023/08/15 01:20:28;;;;;;;9.80;4.40;;;;;;;21.28;76.54;101329.59;7394991;19;20691;-57
2023/08/15 01:22:59;;;;;;;9.75;4.40;;;;;;;21.29;76.15;101325.88;7395777;19;20037;-58
2023/08/15 01:25:28;;;;;;;10.75;4.20;;;;;;;21.37;76.17;101318.69;7394874;19;20033;-57
2023/08/15 01:27:55;;;;;;;10.00;4.13;;;;;;;21.48;75.57;101330.09;7393971;19;20379;-57
2023/08/15 01:30:23;;;;;;;8.63;4.00;;;;;;;21.53;75.41;101325.06;7394463;19;20118;-57
2023/08/15 01:32:50;;;;;;;7.72;3.25;;;;;;;21.46;76.11;101334.84;7395753;19;20096;-58
2023/08/15 01:35:28;;;;;;;11.52;4.55;;;;;;;21.48;76.14;101325.56;7395196;19;20022;-58
2023/08/15 01:38:01;;;;;;;9.57;4.03;;;;;;;21.33;77.14;101316.47;7393660;19;20022;-56
2023/08/15 01:40:29;;;;;;;;;;;;;;;21.17;77.90;101323.53;7395669;19;20056;-58
2023/08/15 01:42:58;;;;;;;9.63;4.10;;;;;;;21.24;77.44;101312.94;7392735;19;19936;-58
2023/08/15 01:45:28;;;;;;;10.55;3.97;;;;;;;21.46;76.31;101314.13;7394015;19;20023;-58
2023/08/15 01:47:55;;;;;;;6.75;3.78;;;;;;;21.57;76.01;101318.31;7393593;19;20086;-60
2023/08/15 01:50:23;;;;;;;8.48;4.00;;;;;;;21.54;76.07;101315.97;7394733;19;20015;-60
2023/08/15 01:52:50;;;;;;;8.93;4.07;;;;;;;21.52;75.72;101305.38;7396992;19;20029;-63
2023/08/15 01:55:18;;;;;;;10.80;4.75;;;;;;;21.56;75.98;101304.00;7395251;19;20015;-62
2023/08/15 01:57:45;;;;;;;8.70;3.67;;;;;;;21.51;76.19;101298.28;7395708;19;20031;-62
2023/08/15 02:00:12;;;;;;;13.00;4.35;;;;;;;21.40;77.12;101306.72;7395556;19;20484;-60
2023/08/15 02:02:40;;;;;;;7.07;3.63;;;;;;;21.34;77.24;101299.31;7396182;19;20019;-59
2023/08/15 02:05:07;;;;;;;7.13;3.35;;;;;;;21.33;77.23;101303.88;7395255;19;20018;-63
2023/08/15 02:07:35;;;;;;;9.30;4.22;;;;;;;21.34;77.08;101299.31;7393431;19;20015;-63
2023/08/15 02:10:02;;;;;;;9.32;4.07;;;;;;;21.32;77.68;101288.66;7395128;19;20081;-63
2023/08/15 02:12:30;;;;;;;7.68;4.03;;;;;;;21.34;77.59;101307.41;7393850;19;20022;-62
2023/08/15 02:14:57;;;;;;;7.72;3.65;;;;;;;21.29;77.46;101297.13;7394445;19;20520;-60
2023/08/15 02:17:24;;;;;;;7.25;3.67;;;;;;;21.24;78.04;101295.91;7394486;19;20015;-61
2023/08/15 02:19:52;;;;;;;7.70;3.92;;;;;;;21.19;78.11;101288.34;7395393;19;20010;-59
2023/08/15 02:22:19;;;;;;;10.80;4.20;;;;;;;21.09;78.55;101287.69;7391904;19;20015;-58
2023/08/15 02:24:46;;;;;;;9.65;4.38;;;;;;;21.19;78.28;101288.34;7395440;19;20082;-61
2023/08/15 02:27:14;;;;;;;9.13;4.47;;;;;;;21.03;78.86;101281.13;7394709;19;20015;-60
2023/08/15 02:29:41;;;;;;;11.68;4.97;;;;;;;21.04;78.85;101282.81;7392731;19;20014;-63
2023/08/15 02:32:08;;;;;;;9.13;3.90;;;;;;;21.04;78.51;101276.56;7393388;19;20489;-62
2023/08/15 02:34:36;;;;;;;13.65;4.30;;;;;;;21.10;78.14;101283.97;7397078;19;20018;-64
2023/08/15 02:37:03;;;;;;;6.93;3.92;;;;;;;21.02;78.34;101275.88;7392088;19;20098;-61
2023/08/15 02:39:31;;;;;;;8.55;3.95;;;;;;;21.04;78.26;101279.28;7393508;19;20019;-62
2023/08/15 02:41:58;;;;;;;6.95;3.85;;;;;;;20.94;78.86;101295.59;7391526;19;20019;-64
2023/08/15 02:44:26;;;;;;;8.88;4.15;;;;;;;20.94;78.71;101285.66;7393523;19;20022;-60
2023/08/15 02:46:53;;;;;;;8.73;4.13;;;;;;;20.93;78.71;101293.91;7391874;19;20014;-62
2023/08/15 02:49:20;;;;;;;10.20;4.40;;;;;;;20.91;79.08;101293.25;7391623;19;20026;-58
2023/08/15 02:51:48;;;;;;;8.75;3.72;;;;;;;20.94;78.55;101300.97;7392095;19;20084;-60
2023/08/15 02:54:15;;;;;;;9.40;4.18;;;;;;;20.89;78.94;101298.78;7393088;19;20039;-61
2023/08/15 02:56:42;;;;;;;9.60;4.32;;;;;;;20.93;78.70;101296.59;7392358;19;20039;-60
2023/08/15 02:59:09;;;;;;;8.55;4.13;;;;;;;20.91;78.68;101285.16;7392591;19;20018;-60
2023/08/15 03:01:37;;;;;;;8.63;4.10;;;;;;;20.89;78.91;101288.00;7391574;19;20023;-60
2023/08/15 03:04:09;;;;;;;9.43;4.20;;;;;;;20.96;78.64;101285.50;7392467;19;20090;-59
2023/08/15 03:06:37;;;;;;;10.30;3.88;;;;;;;20.97;78.70;101283.63;7390183;19;20081;-60
2023/08/15 03:09:04;;;;;;;7.00;3.97;;;;;;;21.03;78.91;101283.81;7390624;19;20035;-59
2023/08/15 03:11:32;;;;;;;11.32;4.82;;;;;;;21.22;78.19;101301.50;7390749;19;20032;-61
2023/08/15 03:13:59;;;;;;;9.45;5.05;;;;;;;21.33;78.14;101309.25;7391777;19;20043;-60
2023/08/15 03:16:27;;;;;;;10.20;4.95;;;;;;;21.41;78.35;101311.94;7391048;19;20018;-61
2023/08/15 03:18:58;;;;;;;10.15;5.28;;;;;;;21.49;77.88;101310.25;7391359;19;20022;-60
2023/08/15 03:21:25;;;;;;;12.93;4.75;;;;;;;21.51;78.09;101309.06;7390975;19;20023;-61
2023/08/15 03:23:52;;;;;;;9.80;4.93;;;;;;;21.54;77.92;101308.72;7391654;19;20007;-60
2023/08/15 03:26:20;;;;;;;10.88;4.93;;;;;;;21.59;77.90;101309.03;7389517;19;20354;-59
2023/08/15 03:28:47;;;;;;;10.18;5.05;;;;;;;21.61;77.78;101307.03;7390943;19;20018;-59
2023/08/15 03:31:14;;;;;;;10.32;5.18;;;;;;;21.63;77.52;101304.13;7390588;19;20018;-59
2023/08/15 03:33:42;;;;;;;10.85;5.07;;;;;;;21.61;78.04;101293.53;7391788;19;20019;-59
2023/08/15 03:36:09;;;;;;;10.50;5.00;;;;;;;21.58;78.18;101293.88;7390741;19;20366;-61
2023/08/15 03:38:36;;;;;;;10.38;4.53;;;;;;;21.61;77.78;101292.69;7391309;19;20014;-62
2023/08/15 03:41:05;;;;;;;11.00;4.60;;;;;;;21.64;77.52;101301.28;7388972;19;20078;-62
2023/08/15 03:43:35;;;;;;;12.75;5.15;;;;;;;21.62;77.94;101300.59;7391535;19;20018;-62
2023/08/15 03:46:03;;;;;;;11.90;4.72;;;;;;;21.63;78.05;101296.88;7387626;19;20097;-59
2023/08/15 03:48:31;;;;;;;9.00;4.93;;;;;;;21.64;78.11;101289.66;7390311;19;20081;-58
2023/08/15 03:50:59;;;;;;;9.20;5.03;;;;;;;21.66;77.59;101283.06;7386942;19;20026;-59
2023/08/15 03:53:28;;;;;;;9.88;4.78;;;;;;;21.69;77.82;101283.75;7394800;19;20031;-60
2023/08/15 03:55:55;;;;;;;8.63;4.70;;;;;;;21.69;78.12;101287.28;7390248;19;20022;-59
2023/08/15 03:58:23;;;;;;;11.10;5.07;;;;;;;21.70;77.44;101280.03;7388675;19;20111;-58
2023/08/15 04:00:51;;;;;;;10.02;5.05;;;;;;;21.68;78.04;101288.31;7390403;19;20022;-59
2023/08/15 04:03:19;;;;;;;10.85;5.15;;;;;;;21.67;78.06;101300.09;7390514;19;20499;-59
2023/08/15 04:05:47;;;;;;;10.07;5.13;;;;;;;21.66;78.15;101298.41;7389655;19;20035;-59
2023/08/15 04:08:15;;;;;;;10.18;5.20;;;;;;;21.63;78.10;101296.06;7389952;19;20019;-59
2023/08/15 04:10:46;;;;;;;10.98;5.28;;;;;;;21.61;78.26;101298.09;7388828;19;20018;-57
2023/08/15 04:13:14;;;;;;;10.82;5.57;;;;;;;21.60;77.60;101299.94;7390911;19;20018;-58
2023/08/15 04:15:42;;;;;;;11.10;5.65;;;;;;;21.57;77.86;101304.84;7389816;19;20019;-58
2023/08/15 04:18:10;;;;;;;12.07;5.90;;;;;;;21.54;78.39;101302.50;7389878;19;20074;-58
2023/08/15 04:20:42;;;;;;;9.95;5.00;;;;;;;21.59;77.90;101283.94;7389825;19;20019;-58
2023/08/15 04:23:10;;;;;;;11.55;5.65;;;;;;;21.50;78.28;101279.59;7390326;19;20433;-59
2023/08/15 04:25:39;;;;;;;10.48;5.50;;;;;;;21.51;78.35;101282.09;7389100;19;20113;-58
2023/08/15 04:28:06;;;;;;;9.13;5.10;;;;;;;21.52;78.53;101264.06;7389983;19;20341;-58
2023/08/15 04:30:34;;;;;;;12.48;5.60;;;;;;;21.47;78.55;101261.06;7389763;19;20043;-58
2023/08/15 04:33:01;;;;;;;11.90;5.70;;;;;;;21.47;78.78;101274.53;7389580;19;20018;-58
2023/08/15 04:35:29;;;;;;;11.93;5.68;;;;;;;21.52;78.64;101278.41;7389185;19;20019;-58
2023/08/15 04:37:56;;;;;;;10.27;5.70;;;;;;;21.55;78.28;101286.13;7393596;19;20015;-58
2023/08/15 04:40:34;;;;;;;10.60;5.78;;;;;;;21.61;77.93;101276.53;7396646;19;20015;-58
2023/08/15 04:43:02;;;;;;;11.82;5.68;;;;;;;21.56;78.22;101282.44;7397581;19;20022;-59
2023/08/15 04:45:29;;;;;;;9.82;5.35;;;;;;;21.53;78.31;101288.16;7396552;19;20086;-58
2023/08/15 04:47:57;;;;;;;8.50;5.03;;;;;;;21.57;78.49;101294.91;7396665;19;20018;-59
2023/08/15 04:50:25;;;;;;;11.07;5.95;;;;;;;21.57;78.37;101292.22;7393749;19;20555;-58
2023/08/15 04:52:52;;;;;;;11.68;6.55;;;;;;;21.59;78.11;101298.25;7399367;19;20047;-59
2023/08/15 04:55:19;;;;;;;11.98;5.47;;;;;;;21.63;78.01;101307.66;7396741;19;20022;-59
2023/08/15 04:57:47;;;;;;;11.30;6.45;;;;;;;21.66;78.41;101309.19;7396390;19;20031;-59
2023/08/15 05:00:17;;;;;;;10.40;5.57;;;;;;;21.66;77.91;101317.28;7396106;19;20025;-58
2023/08/15 05:02:47;;;;;;;13.38;6.10;;;;;;;21.65;78.03;101319.13;7394899;19;20018;-59
2023/08/15 05:05:14;;;;;;;14.32;6.53;;;;;;;21.63;78.35;101317.63;7396468;19;20022;-59
2023/08/15 05:07:42;;;;;;;14.13;6.05;;;;;;;21.65;78.01;101311.06;7394230;19;20059;-59
2023/08/15 05:10:10;;;;;;;11.20;5.82;;;;;;;21.68;78.04;101320.66;7394425;19;20341;-60
2023/08/15 05:12:37;;;;;;;13.18;6.68;;;;;;;21.65;78.28;101313.75;7395930;19;20018;-58
2023/08/15 05:15:07;;;;;;;11.98;6.40;;;;;;;21.69;78.40;101321.50;7395787;19;20018;-58
2023/08/15 05:17:35;;;;;;;12.07;6.35;;;;;;;21.70;78.25;101323.16;7394558;19;20492;-58
2023/08/15 05:20:04;;;;;;;12.43;6.25;;;;;;;21.77;78.54;101325.00;7396100;19;20064;-57
2023/08/15 05:22:32;;;;;;;15.05;5.65;;;;;;;21.83;77.94;101324.31;7393631;19;20085;-57
2023/08/15 05:24:59;;;;;;;10.52;5.82;;;;;;;21.87;77.79;101328.34;7395965;19;20118;-56
2023/08/15 05:27:27;;;;;;;10.18;6.00;;;;;;;21.92;77.64;101338.63;7393065;19;20528;-57
2023/08/15 05:29:54;;;;;;;10.73;6.50;;;;;;;21.93;78.11;101332.22;7393347;19;20022;-57
2023/08/15 05:32:21;;;;;;;11.20;6.15;;;;;;;21.92;77.66;101335.09;7393059;19;20027;-58
2023/08/15 05:34:49;;;;;;;11.18;6.13;;;;;;;21.90;77.82;101340.63;7395541;19;20022;-57
2023/08/15 05:37:16;;;;;;;10.98;5.90;;;;;;;21.88;77.86;101340.81;7393050;19;20018;-57
2023/08/15 05:39:43;;;;;;;10.43;6.15;;;;;;;21.84;78.20;101344.03;7393886;19;20142;-58
2023/08/15 05:42:17;;;;;;;12.93;6.20;;;;;;;21.79;78.49;101338.34;7393040;19;20018;-58
2023/08/15 05:44:46;;;;;;;9.68;6.03;;;;;;;21.82;78.32;101341.50;7393625;19;20015;-58
2023/08/15 05:47:13;;;;;;;10.05;5.75;;;;;;;21.86;78.24;101333.91;7394196;19;20034;-58
2023/08/15 05:49:42;;;;;;;11.00;5.93;;;;;;;21.90;78.07;101328.03;7390172;19;20383;-57
2023/08/15 05:52:10;;;;;;;10.38;6.07;;;;;;;21.90;78.42;101324.47;7392828;19;20366;-58
2023/08/15 05:54:37;;;;;;;12.95;5.88;;;;;;;21.91;77.98;101312.69;7394653;19;20014;-57
2023/08/15 05:57:05;;;;;;;9.45;5.88;;;;;;;21.89;78.03;101334.41;7394055;19;20491;-58
2023/08/15 05:59:32;;;;;;;12.55;6.15;;;;;;;21.87;77.99;101336.44;7394712;19;20044;-57
2023/08/15 06:02:00;;;;;;;12.27;6.13;;;;;;;21.87;78.16;101341.00;7390855;19;20019;-58
2023/08/15 06:04:27;;;;;;;11.52;5.88;;;;;;;21.92;78.49;101338.63;7394212;19;20491;-55
2023/08/15 06:06:55;;;;;;;10.52;5.70;;;;;;;21.99;77.57;101342.31;7393585;19;20074;-55
2023/08/15 06:09:22;;;;;;;9.55;6.28;;;;;;;21.95;78.33;101345.53;7393321;19;20552;-56
2023/08/15 06:11:50;;;;;;;10.73;6.05;;;;;;;21.97;78.00;101356.97;7392736;19;20031;-58
2023/08/15 06:14:19;;;;;;;12.10;6.03;;;;;;;21.97;77.80;101357.81;7394467;19;20039;-57
2023/08/15 06:16:48;;;;;;;12.18;6.88;;;;;;;21.95;78.21;101348.25;7393217;19;20019;-58
2023/08/15 06:19:15;;;;;;;11.38;6.18;;;;;;;21.96;78.34;101356.13;7393946;19;20029;-59
2023/08/15 06:21:43;;;;;;;10.93;6.53;;;;;;;21.98;77.80;101356.81;7390630;19;20019;-58
2023/08/15 06:24:11;;;;;;;12.38;6.60;;;;;;;21.98;78.54;101378.41;7392300;19;20019;-57
2023/08/15 06:26:39;;;;;;;10.18;6.40;;;;;;;21.92;78.61;101383.63;7393029;19;20022;-59
2023/08/15 06:29:07;;;;;;;13.07;6.35;;;;;;;21.90;78.09;101381.09;7392865;19;20087;-60
2023/08/15 06:31:35;;;;;;;11.90;6.78;;;;;;;21.88;78.52;101386.66;7392910;19;20031;-59
2023/08/15 06:34:03;;;;;;;13.40;6.88;;;;;;;21.83;78.92;101378.25;7391649;19;20018;-60
2023/08/15 06:36:31;;;;;;;11.38;6.35;;;;;;;21.80;78.76;101383.16;7392506;19;20397;-59
2023/08/15 06:38:59;;;;;;;11.45;5.85;;;;;;;21.87;78.47;101376.06;7393048;19;20036;-60
2023/08/15 06:41:26;;;;;;;10.82;6.03;;;;;;;21.86;78.77;101385.16;7392476;19;20036;-58
2023/08/15 06:43:54;;;;;;;10.45;6.15;;;;;;;21.82;78.76;101395.44;7392559;19;20018;-59
2023/08/15 06:46:21;;;;;;;11.30;6.50;;;;;;;21.82;79.17;101403.53;7390910;19;20010;-58
2023/08/15 06:48:49;;;;;;;14.50;6.50;;;;;;;21.82;78.68;101400.81;7392519;19;20083;-59
2023/08/15 06:51:16;;;;;;;10.88;6.00;;;;;;;21.77;79.00;101403.19;7391646;19;20021;-58
2023/08/15 06:53:44;;;;;;;11.38;6.35;;;;;;;21.84;78.77;101400.69;7397211;19;20019;-58
2023/08/15 06:56:12;;;;;;;13.93;5.60;;;;;;;21.86;79.10;101404.91;7391057;19;20019;-57
2023/08/15 06:58:40;;;;;;;11.52;5.88;;;;;;;21.83;79.04;101393.59;7392489;19;20018;-58
2023/08/15 07:01:07;;;;;;;9.85;5.82;;;;;;;21.85;78.96;101397.78;7388603;19;20014;-58
2023/08/15 07:03:34;;;;;;;10.88;5.88;;;;;;;21.87;79.66;101397.63;7392435;19;20023;-59
2023/08/15 07:06:04;;;;;;;10.32;6.03;;;;;;;21.86;79.86;101401.31;7391631;19;20025;-58
2023/08/15 07:08:31;;;;;;;10.32;6.10;;;;;;;21.85;79.77;101396.97;7392694;19;20018;-58
2023/08/15 07:10:59;;;;;;;10.38;5.55;;;;;;;21.93;79.69;101405.03;7390341;19;20018;-58
2023/08/15 07:13:29;;;;;;;9.30;5.13;;;;;;;21.97;79.57;101403.66;7392312;19;20036;-61
2023/08/15 07:15:57;;;;;;;10.80;5.80;;;;;;;21.96;79.48;101420.03;7390939;19;20021;-57
2023/08/15 07:18:25;;;;;;;10.57;5.38;;;;;;;21.95;79.35;101419.19;7392315;19;20030;-59
2023/08/15 07:20:53;;;;;;;8.52;5.18;;;;;;;22.00;79.41;101405.19;7390833;19;20043;-58
2023/08/15 07:23:20;;;;;;;12.60;5.95;;;;;;;21.97;80.07;101402.84;7392335;19;20018;-58
2023/08/15 07:25:48;;;;;;;12.40;6.55;;;;;;;21.95;80.19;101405.72;7391046;19;20046;-59
2023/08/15 07:28:15;;;;;;;10.00;5.38;;;;;;;22.01;79.97;101418.50;7391360;19;20029;-59
2023/08/15 07:30:45;;;;;;;11.02;6.15;;;;;;;22.11;79.79;101415.63;7390300;19;20018;-59
2023/08/15 07:33:13;;;;;;;10.13;6.00;;;;;;;22.18;79.87;101423.91;7392108;19;20018;-59
2023/08/15 07:35:42;;;;;;;12.75;5.68;;;;;;;22.25;79.55;101425.75;7391226;19;20345;-59
2023/08/15 07:38:09;;;;;;;9.27;5.38;;;;;;;22.29;79.58;101415.44;7391067;19;20047;-59
2023/08/15 07:40:37;;;;;;;8.98;5.20;;;;;;;22.35;79.53;101420.97;7391892;19;20043;-57
2023/08/15 07:43:04;;;;;;;9.35;5.13;;;;;;;22.40;79.67;101425.88;7391439;19;20022;-56
2023/08/15 07:45:32;;;;;;;7.93;5.68;;;;;;;22.46;79.71;101427.00;7390534;19;20015;-56
2023/08/15 07:47:59;;;;;;;10.98;5.30;;;;;;;22.55;79.17;101434.06;7391042;19;20503;-57
2023/08/15 07:50:28;;;;;;;10.13;5.95;;;;;;;22.59;79.69;101432.72;7387800;19;20368;-59
2023/08/15 07:52:59;;;;;;;9.13;5.38;;;;;;;22.62;79.13;101432.34;7394095;19;20690;-59
2023/08/15 07:55:27;;;;;;;10.82;5.70;;;;;;;22.62;79.14;101425.06;7390144;19;20025;-60
2023/08/15 07:57:57;;;;;;;10.25;5.45;;;;;;;22.61;79.42;101423.41;7390193;19;20014;-59
2023/08/15 08:00:24;;;;;;;10.23;5.70;;;;;;;22.63;79.40;101429.47;7389318;19;20019;-59
2023/08/15 08:02:52;;;;;;;9.55;5.85;;;;;;;22.67;79.13;101439.94;7392307;19;20040;-57
2023/08/15 08:05:20;;;;;;;10.15;5.82;;;;;;;22.68;79.08;101438.91;7392733;19;20014;-57
2023/08/15 08:07:49;;;;;;;9.75;5.38;;;;;;;22.78;79.06;101440.38;7389213;19;20014;-58
2023/08/15 08:10:17;;;;;;;10.18;5.65;;;;;;;22.81;78.61;101440.00;7388403;19;20512;-58
2023/08/15 08:12:47;;;;;;;9.32;5.55;;;;;;;22.95;78.15;101443.03;7394231;19;20349;-58
2023/08/15 08:15:15;;;;;;;9.85;5.72;;;;;;;23.11;78.27;101443.75;7395334;19;20022;-58
2023/08/15 08:17:42;;;;;;;10.23;5.97;;;;;;;23.17;77.79;101444.91;7395606;19;20014;-58
2023/08/15 08:20:12;;;;;;;9.07;5.68;;;;;;;23.26;77.04;101426.78;7395530;19;20018;-58
2023/08/15 08:22:40;;;;;;;9.02;5.70;;;;;;;23.35;77.12;101442.78;7398081;19;20091;-58
2023/08/15 08:25:19;;;;;;;10.13;5.13;;;;;;;23.44;76.86;101446.25;7396112;19;20018;-59
2023/08/15 08:27:48;;;;;;;7.97;5.22;;;;;;;23.35;77.83;101450.88;7397336;19;20531;-59
2023/08/15 08:30:17;;;;;;;9.95;6.45;;;;;;;23.45;77.00;101456.03;7395306;19;20048;-59
2023/08/15 08:32:45;;;;;;;8.73;5.40;;;;;;;23.54;76.50;101465.78;7397636;19;20044;-58
2023/08/15 08:35:16;;;;;;;10.55;7.35;;;;;;;23.61;76.03;101460.47;7397546;19;20022;-58
2023/08/15 08:37:49;;;;;;;10.55;6.70;;;;;;;23.64;75.78;101460.13;7394842;19;20011;-59
2023/08/15 08:40:18;;;;;;;11.40;7.18;;;;;;;23.63;75.56;101465.72;7395823;19;20018;-58
2023/08/15 08:42:46;;;;;;;11.45;8.30;;;;;;;23.54;76.35;101465.78;7396781;19;20014;-60
2023/08/15 08:45:13;;;;;;;13.43;9.18;;;;;;;23.49;75.48;101468.16;7396569;19;20039;-60
2023/08/15 08:47:43;;;;;;;13.73;9.02;;;;;;;23.54;75.04;101481.16;7396573;19;20025;-60
2023/08/15 08:50:11;;;;;;;12.80;8.48;;;;;;;23.50;74.90;101486.06;7395601;19;20014;-60
2023/08/15 08:52:48;;;;;;;13.80;9.52;;;;;;;23.58;75.04;101494.16;7398684;19;20018;-60
2023/08/15 08:55:17;;;;;;;13.88;8.93;;;;;;;23.57;74.92;101494.31;7396433;19;20025;-61
2023/08/15 08:57:48;;;;;;;18.27;11.85;;;;;;;23.57;74.57;101499.72;7396089;19;20018;-60
2023/08/15 09:00:19;;;;;;;13.00;10.65;;;;;;;23.50;74.25;101502.28;7394969;19;20051;-60
2023/08/15 09:02:46;;;;;;;15.38;11.35;;;;;;;23.39;74.63;101499.16;7396544;19;20090;-60
2023/08/15 09:05:14;;;;;;;13.88;11.57;;;;;;;23.29;74.79;101499.41;7396547;19;20040;-61
2023/08/15 09:07:42;;;;;;;16.98;11.82;;;;;;;23.31;74.31;101498.22;7395668;19;20031;-60
2023/08/15 09:10:09;;;;;;;16.13;13.27;;;;;;;23.37;74.10;101503.91;7392726;19;20484;-61
2023/08/15 09:12:38;;;;;;;17.40;14.30;;;;;;;23.55;73.68;101504.47;7396331;19;20085;-60
2023/08/15 09:15:10;;;;;;;17.95;14.50;;;;;;;23.64;73.88;101510.66;7396118;19;20512;-61
2023/08/15 09:17:38;;;;;;;18.05;15.27;;;;;;;23.62;73.97;101510.84;7395935;19;20021;-60
2023/08/15 09:20:13;;;;;;;18.73;14.93;;;;;;;23.59;74.11;101517.44;7394177;19;20014;-60
2023/08/15 09:22:46;;;;;;;17.70;15.07;;;;;;;23.49;74.26;101506.03;7396228;19;20032;-60
2023/08/15 09:25:17;;;;;;;17.60;14.13;;;;;;;23.44;74.57;101505.72;7393207;19;20522;-62
2023/08/15 09:27:45;;;;;;;15.98;13.25;;;;;;;23.34;74.29;101510.50;7395120;19;20022;-60
2023/08/15 09:30:14;;;;;;;15.80;13.68;;;;;;;23.16;74.81;101505.41;7393665;19;20022;-58
2023/08/15 09:32:43;;;;;;;18.73;13.43;;;;;;;23.06;75.44;101507.47;7395977;19;20323;-59
2023/08/15 09:35:13;;;;;;;16.88;12.73;;;;;;;23.16;75.03;101500.00;7395509;19;20022;-58
2023/08/15 09:37:45;;;;;;;17.77;13.25;;;;;;;23.29;73.77;101512.91;7394607;19;20088;-58
2023/08/15 09:40:14;;;;;;;17.75;13.32;;;;;;;23.36;72.58;101516.59;7392359;19;20039;-58
2023/08/15 09:42:43;;;;;;;18.08;12.65;;;;;;;23.44;72.02;101519.25;7395695;19;20047;-58
2023/08/15 09:45:13;;;;;;;15.07;12.02;;;;;;;23.67;71.08;101515.75;7395092;19;20026;-58
2023/08/15 09:47:42;;;;;;;16.15;11.40;;;;;;;23.86;70.25;101509.00;7393010;19;20022;-57
2023/08/15 09:50:12;;;;;;;15.50;11.82;;;;;;;23.73;70.66;101517.72;7393096;19;20101;-58
2023/08/15 09:52:41;;;;;;;15.70;11.70;;;;;;;23.58;71.23;101513.06;7395725;19;20048;-59
2023/08/15 09:55:11;;;;;;;18.17;12.88;;;;;;;23.59;70.34;101512.03;7395365;19;20018;-59
2023/08/15 09:57:40;;;;;;;15.88;11.05;;;;;;;23.59;70.81;101516.63;7393868;19;20015;-59
2023/08/15 10:00:12;;;;;;;15.48;10.20;;;;;;;23.58;70.61;101523.91;7393753;19;20348;-59
2023/08/15 10:02:48;;;;;;;14.50;9.20;;;;;;;23.72;69.75;101522.28;7393874;19;20023;-60
2023/08/15 10:05:19;;;;;;;15.20;8.02;;;;;;;23.70;69.58;101520.81;7397399;19;20015;-62
2023/08/15 10:07:46;;;;;;;14.75;7.55;;;;;;;23.65;68.84;101526.69;7394410;19;20498;-61
2023/08/15 10:10:15;;;;;;;13.90;7.72;;;;;;;23.68;68.10;101530.94;7395262;19;20086;-61
2023/08/15 10:12:45;;;;;;;14.68;7.32;;;;;;;23.71;67.51;101538.72;7394337;19;20014;-61
2023/08/15 10:15:13;;;;;;;12.93;6.60;;;;;;;23.81;66.68;101536.59;7392390;19;20019;-59
2023/08/15 10:17:41;;;;;;;11.95;5.28;;;;;;;23.89;66.39;101541.97;7390555;19;20044;-58
2023/08/15 10:20:10;;;;;;;8.88;4.53;;;;;;;24.00;64.87;101536.13;7392294;19;20043;-58
2023/08/15 10:22:42;;;;;;;10.68;4.65;;;;;;;24.14;63.20;101548.00;7394074;19;20015;-58
2023/08/15 10:25:21;;;;;;;10.88;4.00;;;;;;;24.48;60.85;101544.81;7391746;19;20014;-59
2023/08/15 10:27:51;;;;;;;11.68;3.85;;;;;;;24.59;60.20;101550.81;7393814;19;20019;-58
2023/08/15 10:30:30;;;;;;;10.05;3.65;;;;;;;24.47;59.17;101551.25;7392023;19;20032;-58
2023/08/15 10:33:11;;;;;;;8.65;3.25;;;;;;;24.32;59.80;101558.50;7393265;19;20044;-58
2023/08/15 10:35:54;;;;;;;8.95;2.88;;;;;;;24.19;59.93;101555.56;7391996;19;20018;-58
2023/08/15 10:38:26;;;;;;;10.60;3.67;;;;;;;24.10;60.79;101559.38;7392913;19;20029;-57
2023/08/15 10:41:01;;;;;;;11.07;3.67;;;;;;;24.12;59.83;101557.34;7391124;19;20014;-57
2023/08/15 10:43:29;;;;;;;8.25;2.97;;;;;;;24.14;59.67;101552.56;7391594;19;20375;-57
2023/08/15 10:45:59;;;;;;;7.70;3.00;;;;;;;24.19;59.66;101563.66;7391909;19;20018;-58
2023/08/15 10:48:57;;;;;;;7.13;2.72;;;;;;;24.11;58.22;101561.88;7392908;19;20422;-58
2023/08/15 10:51:35;;;;;;;7.82;2.90;;;;;;;24.11;58.81;101575.41;7391737;19;20018;-59
2023/08/15 10:54:10;;;;;;;11.95;3.00;;;;;;;24.21;58.56;101570.59;7393055;19;20032;-59
2023/08/15 10:56:40;;;;;;;7.10;2.47;;;;;;;24.22;58.97;101582.25;7391145;19;20508;-59
2023/08/15 10:59:14;;;;;;;6.28;2.40;;;;;;;24.20;59.05;101574.34;7392170;19;20438;-59
2023/08/15 11:01:43;;;;;;;6.80;2.40;;;;;;;24.16;59.13;101583.00;7392292;19;20018;-59
2023/08/15 11:04:19;;;;;;;6.68;2.20;;;;;;;24.19;59.06;101593.44;7392113;19;20010;-59
2023/08/15 11:06:52;;;;;;;8.63;2.70;;;;;;;24.17;59.28;101600.94;7391791;19;20097;-58
2023/08/15 11:09:27;;;;;;;6.43;2.03;;;;;;;24.12;58.59;101600.63;7391958;19;20035;-58
2023/08/15 11:12:03;;;;;;;5.30;2.40;;;;;;;24.12;58.88;101598.78;7390289;19;20014;-58
2023/08/15 11:14:32;;;;;;;6.90;2.20;;;;;;;24.16;59.47;101613.63;7391920;19;20039;-58
2023/08/15 11:16:59;;;;;;;7.68;2.38;;;;;;;24.30;58.40;101615.50;7391156;19;20014;-58
2023/08/15 11:19:28;;;;;;;7.85;2.35;;;;;;;24.42;58.72;101618.69;7390938;19;20029;-58
2023/08/15 11:21:56;;;;;;;8.57;2.63;;;;;;;24.49;58.61;101618.78;7392475;19;20018;-57
2023/08/15 11:24:30;;;;;;;5.70;2.28;;;;;;;24.63;58.32;101612.56;7392106;19;20022;-59
2023/08/15 11:26:57;;;;;;;9.60;2.60;;;;;;;24.68;57.95;101606.56;7388953;19;20373;-59